Time;durP1;ratioP1;P1;durP2;ratioP2;P2;SDS_P1;SDS_P2;PMS_P1;PMS_P2;Temp;Humidity;BMP_temperature;BMP_pressure;BME280_temperature;BME280_humidity;BME280_pressure;Samples;Min_cycle;Max_cycle;Signal;HPM_P1;HPM_P2
2022/06/29 00:04:59;;;;;;;7.78;5.30;;;;;;;15.34;100.00;101783.81;10166816;29;20039;-71
2022/06/29 00:09:59;;;;;;;9.60;4.63;;;;;;;15.37;100.00;101793.53;10157594;29;20036;-71
2022/06/29 00:15:02;;;;;;;6.65;4.97;;;;;;;15.31;100.00;101790.69;10157097;29;20564;-72
2022/06/29 00:20:04;;;;;;;7.65;4.50;;;;;;;15.27;100.00;101785.94;10187447;28;20047;-72
2022/06/29 00:25:05;;;;;;;9.25;5.38;;;;;;;15.18;100.00;101780.06;10186817;28;20032;-73
2022/06/29 00:30:06;;;;;;;11.68;5.85;;;;;;;14.67;100.00;101744.31;10201699;28;20046;-72
2022/06/29 00:35:07;;;;;;;7.72;5.07;;;;;;;15.01;100.00;101771.84;10171088;28;20040;-71
2022/06/29 00:40:08;;;;;;;7.95;5.70;;;;;;;14.93;100.00;101784.25;10219264;28;20500;-72
2022/06/29 00:45:09;;;;;;;6.72;5.75;;;;;;;14.87;100.00;101767.81;10177790;29;20040;-72
2022/06/29 00:50:09;;;;;;;9.93;5.72;;;;;;;14.82;100.00;101763.06;10156419;28;20043;-72
2022/06/29 00:55:16;;;;;;;7.57;5.88;;;;;;;14.67;100.00;101744.31;10217784;28;20055;-72
2022/06/29 01:00:16;;;;;;;;;;;;;;;14.75;100.00;101754.09;10202808;28;20059;-71
2022/06/29 01:05:17;;;;;;;10.73;7.20;;;;;;;14.65;100.00;101738.19;10199907;28;19993;-71
2022/06/29 01:10:18;;;;;;;14.57;6.88;;;;;;;14.66;100.00;101739.06;10200447;28;20044;-72
2022/06/29 01:15:19;;;;;;;11.30;7.47;;;;;;;14.69;100.00;101738.53;10185132;28;20036;-71
2022/06/29 01:20:20;;;;;;;8.23;6.43;;;;;;;14.60;100.00;101737.31;10141495;29;20462;-72
2022/06/29 01:25:20;;;;;;;8.73;7.13;;;;;;;14.58;100.00;101736.75;10145440;29;20040;-72
2022/06/29 01:30:21;;;;;;;7.82;6.63;;;;;;;14.50;100.00;101726.94;10171954;28;20050;-72
2022/06/29 01:35:23;;;;;;;8.13;6.78;;;;;;;14.09;100.00;101659.97;10184344;28;20068;-72
2022/06/29 01:40:23;;;;;;;11.40;7.28;;;;;;;14.31;100.00;101699.56;10199765;28;20036;-71
2022/06/29 01:45:24;;;;;;;8.50;7.15;;;;;;;14.43;100.00;101718.81;10183147;28;25289;-72
2022/06/29 01:50:24;;;;;;;10.32;7.15;;;;;;;14.01;100.00;101677.03;10198748;28;20032;-72
2022/06/29 01:55:24;;;;;;;11.18;7.75;;;;;;;14.43;100.00;101721.59;10183157;28;20036;-72
2022/06/29 02:00:26;;;;;;;11.20;8.50;;;;;;;14.33;100.00;101719.53;10199668;28;20064;-71
2022/06/29 02:05:27;;;;;;;9.45;7.82;;;;;;;14.35;100.00;101722.06;10173162;28;20040;-71
2022/06/29 02:10:27;;;;;;;15.40;8.50;;;;;;;14.20;100.00;101708.88;10144836;29;20036;-71
2022/06/29 02:15:28;;;;;;;10.93;8.05;;;;;;;14.24;100.00;101715.56;10160432;29;20040;-71
2022/06/29 02:20:28;;;;;;;12.77;8.43;;;;;;;14.24;100.00;101712.78;10169591;28;20048;-71
2022/06/29 02:25:29;;;;;;;9.48;7.95;;;;;;;14.07;100.00;101676.84;10167483;28;20042;-71
2022/06/29 02:35:49;;;;;;;13.90;9.05;;;;;;;14.17;100.00;101703.00;10201831;28;20598;-71
2022/06/29 02:40:49;;;;;;;13.20;9.10;;;;;;;14.12;100.00;101692.69;10181518;28;20051;-71
2022/06/29 02:45:50;;;;;;;12.93;9.23;;;;;;;14.06;100.00;101682.66;10197215;28;20048;-71
2022/06/29 02:50:50;;;;;;;17.52;9.40;;;;;;;14.10;100.00;101692.13;10166306;28;20039;-71
2022/06/29 02:55:51;;;;;;;13.15;9.80;;;;;;;14.01;100.00;101674.28;10181412;28;20038;-72
2022/06/29 03:00:51;;;;;;;11.77;9.55;;;;;;;14.02;100.00;101678.72;10196280;28;20107;-71
2022/06/29 03:05:52;;;;;;;11.10;9.95;;;;;;;13.97;100.00;101673.94;10196601;28;20048;-71
2022/06/29 03:10:52;;;;;;;10.80;9.30;;;;;;;13.97;100.00;101667.56;10198380;28;20091;-71
2022/06/29 03:15:53;;;;;;;13.93;10.13;;;;;;;13.93;100.00;101662.56;10193728;28;20044;-71
2022/06/29 03:20:53;;;;;;;17.08;10.40;;;;;;;13.88;100.00;101667.19;10157127;29;20047;-71
2022/06/29 03:25:54;;;;;;;11.30;10.05;;;;;;;13.86;100.00;101652.78;10157811;29;20029;-71
2022/06/29 03:30:54;;;;;;;13.77;10.13;;;;;;;13.84;100.00;101655.78;10157188;29;20099;-71
2022/06/29 03:35:55;;;;;;;14.00;10.48;;;;;;;13.83;100.00;101648.59;10174340;29;20032;-71
2022/06/29 03:40:55;;;;;;;15.40;11.38;;;;;;;13.76;100.00;101634.09;10173660;29;20051;-71
2022/06/29 03:45:56;;;;;;;12.52;10.18;;;;;;;13.96;100.00;101646.53;10178564;28;20051;-70
2022/06/29 03:50:56;;;;;;;12.77;10.45;;;;;;;14.05;100.00;101644.97;10192526;28;20389;-69
2022/06/29 03:55:57;;;;;;;12.40;10.52;;;;;;;14.24;100.00;101638.00;10187597;28;20044;-71
2022/06/29 04:00:57;;;;;;;11.30;10.15;;;;;;;14.39;100.00;101639.28;10188103;28;20345;-71
2022/06/29 04:05:58;;;;;;;11.05;9.30;;;;;;;14.53;100.00;101635.81;10188438;28;20044;-71
2022/06/29 04:10:58;;;;;;;11.70;10.40;;;;;;;14.67;100.00;101627.91;10188343;28;20412;-71
2022/06/29 04:15:59;;;;;;;11.82;9.60;;;;;;;14.78;100.00;101619.69;10157829;29;20047;-71
2022/06/29 04:21:06;;;;;;;11.82;10.07;;;;;;;14.73;100.00;101606.63;10183104;29;20044;-73
2022/06/29 04:26:06;;;;;;;;;;;;;;;14.96;100.00;101624.81;10179804;29;20047;-71
2022/06/29 04:31:07;;;;;;;10.15;9.15;;;;;;;15.12;100.00;101625.78;10180520;29;19919;-72
2022/06/29 04:36:07;;;;;;;13.73;9.60;;;;;;;15.24;100.00;101617.28;10164452;29;20047;-72
2022/06/29 04:41:08;;;;;;;9.98;8.73;;;;;;;15.29;100.00;101603.41;10132267;29;20051;-72
2022/06/29 04:46:20;;;;;;;9.20;8.02;;;;;;;15.53;100.00;101609.41;10159605;28;20108;-73
2022/06/29 04:51:21;;;;;;;9.45;7.65;;;;;;;15.73;100.00;101608.69;10179201;28;20032;-72
2022/06/29 04:56:23;;;;;;;12.63;8.50;;;;;;;15.82;100.00;101600.66;10162940;29;20480;-72
2022/06/29 05:01:24;;;;;;;9.27;7.97;;;;;;;15.92;100.00;101609.03;10141507;28;20043;-72
2022/06/29 05:06:24;;;;;;;8.70;7.80;;;;;;;16.03;100.00;101607.94;10184873;28;20112;-72
2022/06/29 05:11:26;;;;;;;8.75;7.90;;;;;;;16.04;100.00;101601.31;10201402;28;20047;-73
2022/06/29 05:16:26;;;;;;;8.25;7.40;;;;;;;16.20;100.00;101595.78;10186356;28;20047;-72
2022/06/29 05:21:27;;;;;;;12.23;8.23;;;;;;;16.29;100.00;101600.53;10190601;28;20043;-74
2022/06/29 05:26:28;;;;;;;9.15;8.25;;;;;;;16.36;100.00;101594.69;10161275;29;20076;-72
2022/06/29 05:31:29;;;;;;;9.93;8.75;;;;;;;16.60;100.00;101597.78;10161992;29;20158;-72
2022/06/29 05:36:30;;;;;;;11.50;8.48;;;;;;;16.77;100.00;101593.88;10155664;29;20067;-72
2022/06/29 05:41:30;;;;;;;8.45;7.55;;;;;;;16.96;100.00;101581.09;10175549;28;20082;-72
2022/06/29 05:46:31;;;;;;;9.48;7.60;;;;;;;17.19;100.00;101574.09;10145628;29;20048;-71
2022/06/29 05:51:32;;;;;;;10.55;8.00;;;;;;;17.23;100.00;101577.16;10128756;28;20036;-71
2022/06/29 05:56:32;;;;;;;10.65;8.75;;;;;;;17.30;100.00;101572.13;10160464;29;20036;-71
2022/06/29 06:01:33;;;;;;;15.93;8.75;;;;;;;17.36;100.00;101573.75;10159846;29;20453;-72
2022/06/29 06:06:33;;;;;;;10.00;9.07;;;;;;;17.50;100.00;101562.88;10129728;29;20048;-72
2022/06/29 06:11:34;;;;;;;9.63;7.05;;;;;;;17.79;100.00;101565.81;10162443;28;20040;-71
2022/06/29 06:16:35;;;;;;;8.48;6.00;;;;;;;18.16;100.00;101556.16;10196216;28;20072;-73
2022/06/29 06:21:35;;;;;;;10.30;4.70;;;;;;;18.53;100.00;101560.34;10183315;28;20512;-70
2022/06/29 06:26:36;;;;;;;5.15;4.38;;;;;;;18.57;100.00;101494.50;10183718;28;20046;-73
2022/06/29 06:31:36;;;;;;;5.60;3.97;;;;;;;19.13;100.00;101544.16;10181666;28;20055;-72
2022/06/29 06:36:37;;;;;;;5.25;3.92;;;;;;;19.52;100.00;101562.69;10197961;28;20031;-72
2022/06/29 06:41:37;;;;;;;6.05;4.35;;;;;;;19.79;100.00;101538.94;10182438;28;20048;-71
2022/06/29 06:46:38;;;;;;;4.72;3.22;;;;;;;20.14;100.00;101531.16;10141740;28;20032;-71
2022/06/29 06:51:38;;;;;;;7.10;3.17;;;;;;;20.38;100.00;101533.00;10158295;29;20039;-72
2022/06/29 06:56:39;;;;;;;4.25;2.65;;;;;;;20.62;100.00;101532.91;10175374;29;20044;-71
2022/06/29 07:01:39;;;;;;;4.30;2.05;;;;;;;20.87;100.00;101518.47;10204491;28;20051;-72
2022/06/29 07:06:40;;;;;;;3.28;2.22;;;;;;;21.07;100.00;101508.84;10195549;28;20044;-72
2022/06/29 07:11:40;;;;;;;2.65;1.77;;;;;;;21.24;100.00;101496.19;10208650;28;20395;-73
2022/06/29 07:16:41;;;;;;;7.53;2.25;;;;;;;21.72;100.00;101520.97;10173262;28;20039;-72
2022/06/29 07:21:41;;;;;;;5.32;2.00;;;;;;;21.84;100.00;101506.41;10209026;28;20044;-73
2022/06/29 07:26:42;;;;;;;4.32;1.83;;;;;;;22.02;97.66;101491.41;10182172;28;20070;-72
2022/06/29 07:31:42;;;;;;;5.13;2.20;;;;;;;22.32;95.69;101506.66;10198991;28;20040;-73
2022/06/29 07:36:43;;;;;;;3.50;1.77;;;;;;;22.49;94.62;101500.38;10221162;28;20047;-73
2022/06/29 07:41:43;;;;;;;3.78;1.55;;;;;;;22.73;95.06;101500.00;10186314;28;20035;-73
2022/06/29 07:46:44;;;;;;;3.60;2.08;;;;;;;22.96;95.16;101499.94;10204195;28;20503;-72
2022/06/29 07:51:44;;;;;;;2.47;2.05;;;;;;;23.05;92.17;101478.41;10218371;28;20036;-73
2022/06/29 07:56:45;;;;;;;3.08;1.80;;;;;;;23.33;93.86;101503.44;10183538;28;20118;-73
2022/06/29 08:01:45;;;;;;;2.42;1.80;;;;;;;23.11;93.38;101451.81;10197091;28;20036;-73
2022/06/29 08:06:46;;;;;;;2.72;1.73;;;;;;;23.67;89.96;101507.47;10171617;28;20074;-72
2022/06/29 08:11:46;;;;;;;8.93;2.53;;;;;;;23.77;89.47;101498.75;10219831;28;20055;-72
2022/06/29 08:16:47;;;;;;;3.90;1.60;;;;;;;23.89;88.32;101490.50;10216056;28;20055;-71
2022/06/29 08:21:48;;;;;;;2.83;2.15;;;;;;;24.00;81.03;101471.31;10192522;28;20052;-73
2022/06/29 08:26:48;;;;;;;3.67;2.05;;;;;;;24.13;85.40;101489.19;10220828;28;20051;-72
2022/06/29 08:31:49;;;;;;;2.45;1.80;;;;;;;24.18;82.47;101474.94;10203627;28;20043;-73
2022/06/29 08:36:49;;;;;;;3.95;2.00;;;;;;;24.41;82.47;101474.75;10220467;28;20043;-74
2022/06/29 08:41:49;;;;;;;5.07;1.90;;;;;;;24.61;82.94;101470.44;10219287;28;20050;-71
2022/06/29 08:46:50;;;;;;;3.08;1.70;;;;;;;24.80;80.74;101467.22;10173563;28;20048;-73
2022/06/29 08:51:50;;;;;;;3.53;2.03;;;;;;;24.98;79.37;101451.91;10188253;28;20032;-72
2022/06/29 08:56:54;;;;;;;2.65;1.77;;;;;;;25.11;77.98;101442.38;10202663;28;20039;-71
2022/06/29 09:01:55;;;;;;;3.78;2.33;;;;;;;25.33;80.04;101457.38;10217692;28;20059;-72
2022/06/29 09:06:56;;;;;;;8.20;1.90;;;;;;;25.42;76.44;101432.78;10201374;28;20047;-73
2022/06/29 09:11:57;;;;;;;10.07;2.58;;;;;;;25.63;75.20;101443.22;10185583;28;20054;-73
2022/06/29 09:16:59;;;;;;;3.10;1.80;;;;;;;25.43;76.01;101434.44;10184912;28;20036;-72
2022/06/29 09:21:59;;;;;;;2.47;1.80;;;;;;;25.50;74.97;101420.59;10184892;28;20396;-73
2022/06/29 09:27:02;;;;;;;5.45;3.08;;;;;;;25.70;74.44;101426.59;10197898;28;20457;-74
2022/06/29 09:32:09;;;;;;;5.07;1.55;;;;;;;26.04;74.40;101438.78;10184425;28;20046;-74
2022/06/29 09:37:13;;;;;;;;;;;;;;;26.12;74.30;101432.22;10216796;28;20036;-72
2022/06/29 09:42:17;;;;;;;5.78;1.80;;;;;;;26.34;73.95;101423.38;10215253;28;19923;-73
2022/06/29 09:47:21;;;;;;;4.43;1.90;;;;;;;26.72;71.64;101430.75;10216986;28;20050;-74
2022/06/29 09:52:22;;;;;;;3.58;1.85;;;;;;;27.16;71.52;101424.50;10184287;28;20119;-74
2022/06/29 09:57:29;;;;;;;6.55;1.63;;;;;;;27.33;68.77;101390.38;10183968;28;20039;-72
2022/06/29 10:02:45;;;;;;;2.15;1.20;;;;;;;27.57;66.25;101399.97;10184143;28;20036;-72
2022/06/29 10:07:47;;;;;;;4.28;1.20;;;;;;;27.84;63.80;101387.03;10200996;28;20501;-73
2022/06/29 10:18:53;;;;;;;3.25;1.38;;;;;;;28.11;57.52;101370.41;10216867;28;20127;-72
2022/06/29 10:24:00;;;;;;;3.45;1.33;;;;;;;28.31;60.10;101372.19;10214096;28;20048;-73
2022/06/29 10:29:09;;;;;;;5.43;1.48;;;;;;;28.42;59.08;101371.66;10197329;28;20036;-72
2022/06/29 10:34:38;;;;;;;4.30;1.60;;;;;;;28.49;59.07;101366.19;10215254;28;20044;-73
2022/06/29 10:39:41;;;;;;;5.82;1.52;;;;;;;28.71;57.12;101356.22;10176466;28;20048;-73
2022/06/29 10:44:58;;;;;;;2.22;1.25;;;;;;;29.07;57.36;101357.09;10212260;28;20047;-72
2022/06/29 10:50:13;;;;;;;5.75;1.63;;;;;;;28.65;54.98;101337.84;10173464;29;20067;-73
2022/06/29 10:55:14;;;;;;;4.13;1.70;;;;;;;28.03;56.56;101349.59;10173979;29;20047;-73
2022/06/29 11:00:25;;;;;;;3.17;1.38;;;;;;;28.06;56.80;101297.09;10140734;29;20281;-73
2022/06/29 11:05:26;;;;;;;2.38;1.85;;;;;;;28.44;55.78;101323.97;10197557;28;20440;-73
2022/06/29 11:15:49;;;;;;;4.15;1.50;;;;;;;27.95;57.07;101325.94;10160865;29;20633;-73
2022/06/29 11:20:50;;;;;;;5.63;1.85;;;;;;;27.64;59.62;101337.13;10158380;29;20604;-74
2022/06/29 11:25:54;;;;;;;3.65;1.70;;;;;;;27.52;56.68;101319.03;10174781;29;20043;-75
2022/06/29 11:31:04;;;;;;;2.92;1.60;;;;;;;28.00;60.72;101332.53;10171896;28;20082;-74
2022/06/29 11:36:09;;;;;;;1.45;1.13;;;;;;;27.47;59.50;101185.56;10210281;28;20051;-77
2022/06/29 11:41:23;;;;;;;3.03;1.73;;;;;;;28.81;55.67;101287.66;10141694;29;20040;-74
2022/06/29 11:46:24;;;;;;;2.33;1.98;;;;;;;28.61;55.64;101283.97;10166715;28;20055;-73
2022/06/29 11:51:25;;;;;;;2.25;2.03;;;;;;;28.60;55.65;101299.31;10177974;28;20036;-73
2022/06/29 11:56:27;;;;;;;2.78;1.92;;;;;;;28.35;56.40;101223.03;10179039;28;20332;-76
2022/06/29 12:01:28;;;;;;;6.75;2.10;;;;;;;28.74;57.67;101288.31;10157822;29;20104;-77
2022/06/29 12:06:29;;;;;;;4.05;2.67;;;;;;;29.26;56.71;101285.44;10157890;29;20091;-75
2022/06/29 12:11:30;;;;;;;2.28;2.05;;;;;;;30.23;54.28;101271.09;10140359;28;20040;-73
2022/06/29 12:16:31;;;;;;;2.78;2.40;;;;;;;30.54;55.62;101269.19;10170625;28;20032;-73
2022/06/29 12:21:31;;;;;;;3.80;2.35;;;;;;;31.17;51.87;101257.13;10161527;29;20059;-74
2022/06/29 12:26:32;;;;;;;3.22;2.58;;;;;;;30.82;54.79;101263.13;10195402;29;20040;-73
2022/06/29 12:31:35;;;;;;;4.07;2.60;;;;;;;30.83;55.60;101266.78;10179482;28;20433;-75
2022/06/29 12:36:35;;;;;;;6.25;4.15;;;;;;;30.46;54.06;101254.06;10162935;29;20040;-73
2022/06/29 12:41:36;;;;;;;4.43;2.92;;;;;;;30.93;56.16;101264.13;10147942;29;20043;-75
2022/06/29 12:46:39;;;;;;;6.63;3.35;;;;;;;31.08;55.38;101258.63;10178972;29;20055;-73
2022/06/29 12:51:39;;;;;;;4.78;3.55;;;;;;;30.02;57.95;101236.69;10177998;29;20040;-72
2022/06/29 12:56:40;;;;;;;5.10;3.55;;;;;;;29.32;58.43;101266.94;10186989;28;20380;-74
2022/06/29 13:01:40;;;;;;;5.78;3.83;;;;;;;29.21;60.11;101277.22;10170239;28;20066;-75
2022/06/29 13:06:41;;;;;;;5.32;3.92;;;;;;;29.60;61.31;101274.38;10186659;28;20117;-74
2022/06/29 13:11:41;;;;;;;8.52;4.38;;;;;;;30.58;60.22;101265.19;10199084;28;20062;-76
2022/06/29 13:16:42;;;;;;;4.90;3.35;;;;;;;32.18;57.00;101247.66;10183605;28;20059;-76
2022/06/29 13:21:43;;;;;;;5.32;3.75;;;;;;;33.53;52.19;101226.03;10201251;28;20036;-75
2022/06/29 13:26:43;;;;;;;6.30;3.78;;;;;;;32.87;53.23;101248.97;10168761;28;20489;-75
2022/06/29 13:31:43;;;;;;;5.70;3.53;;;;;;;31.66;54.90;101254.47;10173887;28;20043;-76
2022/06/29 13:36:44;;;;;;;8.98;3.72;;;;;;;31.02;57.15;101266.66;10162698;29;20048;-69
2022/06/29 13:41:44;;;;;;;6.03;3.10;;;;;;;30.99;55.53;101256.06;10209352;28;20055;-75
2022/06/29 13:46:45;;;;;;;5.22;3.40;;;;;;;31.73;55.31;101241.13;10217074;28;20031;-73
2022/06/29 13:51:45;;;;;;;6.75;3.53;;;;;;;32.74;55.43;101237.09;10194890;28;20119;-78
2022/06/29 13:56:46;;;;;;;6.22;3.95;;;;;;;33.75;52.48;101228.94;10184045;28;20710;-76
2022/06/29 14:01:46;;;;;;;11.20;3.63;;;;;;;33.32;51.22;101126.94;10161444;29;20051;-75
2022/06/29 14:06:47;;;;;;;4.00;3.55;;;;;;;32.86;50.84;101223.72;10178939;29;20072;-80
2022/06/29 14:11:47;;;;;;;5.50;3.85;;;;;;;31.72;53.11;101235.81;10150286;28;20060;-77
2022/06/29 14:16:48;;;;;;;4.28;3.80;;;;;;;31.43;54.51;101240.34;10216574;28;20407;-78
2022/06/29 14:21:48;;;;;;;7.80;3.75;;;;;;;31.22;57.05;101246.63;10209406;28;20050;-75
2022/06/29 14:26:49;;;;;;;5.47;4.82;;;;;;;30.92;57.85;101247.44;10217435;28;20047;-76
2022/06/29 14:31:49;;;;;;;9.57;4.22;;;;;;;30.44;58.34;101247.13;10214525;28;20039;-84
2022/06/29 14:36:50;;;;;;;4.55;4.00;;;;;;;29.78;58.82;101242.31;10214213;28;20043;-80
2022/06/29 14:41:50;;;;;;;6.05;4.20;;;;;;;29.23;60.78;101249.31;10212549;28;20044;-84
2022/06/29 14:46:51;;;;;;;6.40;4.47;;;;;;;29.01;61.99;101250.84;10159583;29;20043;-83
2022/06/29 14:51:51;;;;;;;7.00;3.80;;;;;;;29.04;61.84;101245.25;10202845;28;20040;-71
2022/06/29 14:56:52;;;;;;;4.60;4.03;;;;;;;29.43;63.92;101250.94;10176063;28;20044;-70
2022/06/29 15:01:52;;;;;;;5.45;4.05;;;;;;;29.57;63.53;101236.22;10175683;28;20141;-74
2022/06/29 15:06:53;;;;;;;4.63;4.05;;;;;;;29.21;63.12;101231.84;10189345;28;20043;-72
2022/06/29 15:11:55;;;;;;;5.55;4.22;;;;;;;28.63;64.33;101235.41;10175910;29;20074;-73
2022/06/29 15:16:55;;;;;;;5.40;4.15;;;;;;;28.22;63.13;101215.84;10177111;29;20402;-72
2022/06/29 15:21:55;;;;;;;5.47;4.22;;;;;;;28.53;65.61;101220.66;10175330;29;20038;-72
2022/06/29 15:26:56;;;;;;;6.63;4.82;;;;;;;29.03;63.16;101215.28;10176420;29;20063;-73
2022/06/29 15:31:57;;;;;;;4.43;4.03;;;;;;;29.53;63.69;101216.28;10189920;28;20046;-76
2022/06/29 15:42:17;;;;;;;6.05;4.53;;;;;;;31.99;58.77;101190.94;10229534;28;20044;-76
2022/06/29 15:47:19;;;;;;;4.18;3.78;;;;;;;31.76;57.97;101191.94;10215327;28;20047;-72
2022/06/29 15:52:19;;;;;;;5.20;3.75;;;;;;;31.42;59.67;101196.03;10228745;28;20311;-72
2022/06/29 15:57:20;;;;;;;5.22;4.70;;;;;;;31.22;59.03;101199.09;10234301;28;20043;-73
2022/06/29 16:02:20;;;;;;;6.00;4.10;;;;;;;31.30;61.29;101209.34;10195883;29;20032;-73
2022/06/29 16:07:21;;;;;;;6.32;3.95;;;;;;;31.89;60.14;101201.00;10182703;29;20064;-74
2022/06/29 16:12:21;;;;;;;6.95;3.65;;;;;;;32.61;55.62;101173.06;10182386;29;20040;-72
2022/06/29 16:17:21;;;;;;;4.38;3.97;;;;;;;33.59;54.34;101169.34;10196914;29;20052;-74
2022/06/29 16:22:23;;;;;;;5.65;3.88;;;;;;;34.56;51.86;101161.56;10197313;29;20051;-74
2022/06/29 16:27:23;;;;;;;5.22;3.70;;;;;;;34.96;51.35;101164.28;10181779;29;20061;-75
2022/06/29 16:32:24;;;;;;;7.03;3.65;;;;;;;33.79;51.94;101151.84;10181399;29;20084;-73
2022/06/29 16:37:24;;;;;;;4.05;3.70;;;;;;;32.90;53.22;101158.97;10204636;28;20052;-72
2022/06/29 16:42:25;;;;;;;6.47;4.38;;;;;;;31.94;53.84;101163.63;10237694;28;20039;-74
2022/06/29 16:47:25;;;;;;;4.82;4.25;;;;;;;30.83;56.38;101176.63;10236976;28;20468;-73
2022/06/29 16:52:26;;;;;;;5.15;3.97;;;;;;;30.45;60.07;101187.09;10219681;28;20040;-73
2022/06/29 16:57:26;;;;;;;5.50;3.78;;;;;;;30.09;60.21;101180.00;10231059;28;20044;-72
2022/06/29 17:02:27;;;;;;;6.95;4.10;;;;;;;30.08;60.75;101184.06;10231122;28;20066;-74
2022/06/29 17:07:27;;;;;;;5.18;4.68;;;;;;;29.78;60.49;101173.41;10203479;28;20043;-74
2022/06/29 17:12:28;;;;;;;7.32;4.70;;;;;;;29.18;63.78;101188.06;10256926;28;20041;-72
2022/06/29 17:17:28;;;;;;;5.18;4.43;;;;;;;28.36;64.37;101187.88;10234920;28;20063;-71
2022/06/29 17:22:29;;;;;;;5.60;4.35;;;;;;;27.76;65.76;101184.31;10220898;28;20040;-69
2022/06/29 17:27:29;;;;;;;5.13;4.60;;;;;;;27.69;67.17;101192.63;10225719;28;20039;-74
2022/06/29 17:32:30;;;;;;;9.25;4.90;;;;;;;27.65;68.48;101186.06;10220299;28;20040;-69
2022/06/29 17:37:30;;;;;;;6.95;4.70;;;;;;;27.63;67.39;101182.78;10194892;28;20037;-73
2022/06/29 17:42:34;;;;;;;4.90;4.50;;;;;;;27.48;67.98;101182.38;10190559;28;20407;-74
2022/06/29 17:47:34;;;;;;;6.10;4.82;;;;;;;27.09;69.14;101170.78;10200820;28;20051;-73
2022/06/29 17:52:35;;;;;;;7.40;4.20;;;;;;;26.89;70.04;101188.75;10215868;28;20036;-73
2022/06/29 17:57:35;;;;;;;5.07;4.18;;;;;;;26.54;71.28;101167.53;10199207;28;20043;-73
2022/06/29 18:02:36;;;;;;;5.55;4.75;;;;;;;26.42;72.41;101183.66;10214887;28;20035;-73
2022/06/29 18:07:36;;;;;;;7.18;4.20;;;;;;;26.30;73.82;101185.31;10213774;28;20419;-73
2022/06/29 18:12:37;;;;;;;4.45;4.05;;;;;;;26.18;72.91;101177.69;10213490;28;20154;-76
2022/06/29 18:17:37;;;;;;;7.45;4.47;;;;;;;26.10;75.72;101180.63;10196783;28;20061;-73
2022/06/29 18:22:37;;;;;;;5.18;4.45;;;;;;;26.03;75.52;101174.75;10217137;28;20036;-72
2022/06/29 18:27:38;;;;;;;6.45;4.50;;;;;;;25.97;75.80;101166.53;10214834;28;20039;-74
2022/06/29 18:32:38;;;;;;;4.78;4.00;;;;;;;25.97;76.00;101172.16;10198746;28;20075;-74
2022/06/29 18:37:39;;;;;;;6.82;4.90;;;;;;;26.01;77.52;101169.47;10197375;28;20036;-73
2022/06/29 18:42:39;;;;;;;4.15;3.85;;;;;;;25.64;77.60;101118.66;10212843;28;20035;-73
2022/06/29 18:47:40;;;;;;;7.28;4.05;;;;;;;25.92;78.31;101174.38;10200950;28;20568;-74
2022/06/29 18:52:41;;;;;;;7.50;4.25;;;;;;;25.76;80.47;101177.88;10211937;28;20040;-78
2022/06/29 18:57:45;;;;;;;4.82;4.32;;;;;;;25.56;81.49;101179.59;10182231;28;20048;-72
2022/06/29 19:02:47;;;;;;;4.75;4.25;;;;;;;25.34;84.93;101183.69;10213150;28;20043;-74
2022/06/29 19:07:47;;;;;;;5.95;4.85;;;;;;;25.14;85.54;101179.69;10197634;28;20052;-73
2022/06/29 19:12:47;;;;;;;7.03;5.10;;;;;;;24.95;85.67;101179.34;10173950;28;20118;-74
2022/06/29 19:17:48;;;;;;;6.28;4.78;;;;;;;24.78;88.06;101188.78;10182486;28;20044;-73
2022/06/29 19:22:48;;;;;;;4.93;4.43;;;;;;;24.63;91.29;101193.03;10174265;28;20044;-72
2022/06/29 19:27:50;;;;;;;6.03;4.97;;;;;;;24.48;95.67;101191.63;10181786;28;20449;-70
2022/06/29 19:32:50;;;;;;;6.30;5.43;;;;;;;24.33;98.33;101190.25;10195176;28;20131;-69
2022/06/29 19:37:51;;;;;;;5.57;5.00;;;;;;;24.21;100.00;101201.41;10206079;28;20523;-73
2022/06/29 19:42:52;;;;;;;9.57;5.80;;;;;;;24.05;100.00;101200.31;10219838;28;20126;-72
2022/06/29 19:47:52;;;;;;;7.57;6.15;;;;;;;23.93;100.00;101213.09;10223758;28;20055;-69
2022/06/29 19:52:53;;;;;;;8.43;5.97;;;;;;;23.83;100.00;101213.47;10223655;28;20047;-73
2022/06/29 19:57:54;;;;;;;6.78;6.00;;;;;;;23.75;100.00;101223.56;10200430;28;20081;-74
2022/06/29 20:02:54;;;;;;;7.15;6.15;;;;;;;23.67;100.00;101220.75;10218853;28;20048;-76
2022/06/29 20:07:55;;;;;;;7.85;5.78;;;;;;;23.59;100.00;101213.19;10204055;28;20043;-78
2022/06/29 20:12:55;;;;;;;8.38;7.18;;;;;;;23.48;100.00;101216.38;10173303;28;20282;-72
2022/06/29 20:17:56;;;;;;;6.63;6.03;;;;;;;23.37;100.00;101215.06;10220082;28;20044;-69
2022/06/29 20:22:57;;;;;;;6.60;6.00;;;;;;;23.22;100.00;101221.19;10222637;28;20039;-63
2022/06/29 20:27:57;;;;;;;7.00;6.30;;;;;;;23.09;100.00;101232.28;10201746;28;20101;-65
2022/06/29 20:32:58;;;;;;;9.95;6.10;;;;;;;22.97;100.00;101226.47;10210374;28;20039;-65
2022/06/29 20:37:58;;;;;;;7.10;6.05;;;;;;;22.88;100.00;101225.63;10220507;28;20106;-64
2022/06/29 20:42:59;;;;;;;8.90;6.57;;;;;;;22.76;100.00;101224.31;10208703;28;20051;-66
2022/06/29 20:48:00;;;;;;;7.13;6.40;;;;;;;22.63;100.00;101239.28;10177332;28;20047;-66
2022/06/29 20:53:01;;;;;;;11.20;10.00;;;;;;;22.38;100.00;101218.44;10160522;29;20397;-66
2022/06/29 20:58:02;;;;;;;10.02;8.95;;;;;;;22.18;100.00;101225.47;10203801;28;20067;-66
2022/06/29 21:03:02;;;;;;;8.95;8.02;;;;;;;21.97;100.00;101228.00;10212823;28;20047;-66
2022/06/29 21:08:04;;;;;;;8.25;7.45;;;;;;;21.80;100.00;101214.72;10215862;28;20036;-66
2022/06/29 21:13:04;;;;;;;12.02;8.20;;;;;;;21.58;100.00;101221.22;10187476;28;20051;-65
2022/06/29 21:18:05;;;;;;;10.65;8.30;;;;;;;21.33;100.00;101217.91;10178069;29;20043;-66
2022/06/29 21:23:05;;;;;;;9.77;8.80;;;;;;;21.13;100.00;101219.22;10208502;28;20087;-66
2022/06/29 21:28:06;;;;;;;10.45;9.27;;;;;;;20.96;100.00;101233.91;10216508;28;20071;-63
2022/06/29 21:33:07;;;;;;;12.30;10.98;;;;;;;20.78;100.00;101234.09;10216510;28;20032;-66
2022/06/29 21:38:07;;;;;;;11.25;9.90;;;;;;;20.66;100.00;101234.63;10208857;28;20042;-66
2022/06/29 21:43:08;;;;;;;11.18;10.07;;;;;;;20.54;100.00;101235.13;10201590;28;20044;-67
2022/06/29 21:51:07;;;;;;;10.88;9.65;;;;;;;20.47;100.00;101245.91;10197682;28;20048;-66
2022/06/29 21:53:28;;;;;;;11.75;10.15;;;;;;;20.41;100.00;101253.59;10175538;28;20047;-66
2022/06/29 21:58:29;;;;;;;10.43;9.32;;;;;;;20.10;100.00;101203.06;10184768;28;20139;-66
2022/06/29 22:03:31;;;;;;;13.73;9.57;;;;;;;20.36;100.00;101248.94;10214287;28;20119;-66
2022/06/29 22:08:32;;;;;;;10.25;8.43;;;;;;;20.32;100.00;101261.06;10215537;28;20040;-66
2022/06/29 22:13:33;;;;;;;10.65;9.32;;;;;;;20.29;100.00;101264.44;10217323;28;20039;-67
2022/06/29 22:18:33;;;;;;;8.85;7.82;;;;;;;20.19;100.00;101257.09;10217788;28;20051;-66
2022/06/29 22:23:34;;;;;;;11.13;8.55;;;;;;;20.07;100.00;101253.97;10217610;28;20067;-67
2022/06/29 22:28:34;;;;;;;9.95;8.40;;;;;;;19.89;100.00;101262.16;10212709;28;20036;-66
2022/06/29 22:33:35;;;;;;;10.05;8.90;;;;;;;19.70;100.00;101259.44;10215945;28;20036;-66
2022/06/29 22:38:35;;;;;;;9.45;7.13;;;;;;;19.55;100.00;101256.84;10207835;28;20044;-63
2022/06/29 22:43:36;;;;;;;6.25;5.65;;;;;;;19.52;100.00;101254.69;10217137;28;20106;-66
2022/06/29 22:48:36;;;;;;;6.72;5.65;;;;;;;19.32;100.00;101213.97;10215275;28;20095;-65
2022/06/29 22:53:37;;;;;;;5.97;5.18;;;;;;;19.62;100.00;101250.91;10215990;28;20031;-65
2022/06/29 23:15:51;;;;;;;6.97;5.05;;;;;;;19.35;100.00;101232.91;10312376;28;20047;-65
2022/06/29 23:20:52;;;;;;;5.55;4.80;;;;;;;19.31;100.00;101249.44;10281243;28;20043;-66
2022/06/29 23:25:53;;;;;;;6.97;4.70;;;;;;;19.18;100.00;101241.81;10283864;28;20058;-65
2022/06/29 23:30:53;;;;;;;5.75;4.38;;;;;;;19.06;100.00;101245.09;10284001;28;20098;-66
2022/06/29 23:35:54;;;;;;;5.88;4.28;;;;;;;18.92;100.00;101242.22;10297183;28;20059;-66